Miami Lakes, Florida
Current Conditions -  °F | °C
As of 11:53 PM on Saturday 25 Oct 2014 (Local Time) from KOPF Reporting Station
Clear Clear  
Wind Chill: 71°   Ceiling: Unl
Heat Index: 71°   Visibility: 10mi
Dew Point: 64°   Wind: 7mph
Humidity: 78%   Direction: 340°NNW
Pressure: 29.95"   Gusts: NA
Location:  25.9357°N, 80.3817°W
Report Text: KOPF 260353Z AUTO 34006KT 10SM CLR 22/18 A2995 RMK AO2 SLP142 T02170178 $
Loading
Personal Weather Stations






























Interactive Weather Map
Tropical Storm Tracking
New forecast layout! Learn more

10-Day Weather Forecast

Advertisements
Track Severe Weather on mobile